sensor_id;sensor_type;location;lat;lon;timestamp;temperature;humidity
69031;DHT22;56083;48.774;8.942;2023-06-14T00:00:33;11.60;99.90
69031;DHT22;56083;48.774;8.942;2023-06-14T00:03:00;11.70;99.90
69031;DHT22;56083;48.774;8.942;2023-06-14T00:05:25;11.60;99.90
69031;DHT22;56083;48.774;8.942;2023-06-14T00:07:51;11.60;99.90
69031;DHT22;56083;48.774;8.942;2023-06-14T00:10:19;11.50;99.90
69031;DHT22;56083;48.774;8.942;2023-06-14T00:12:44;11.40;99.90
69031;DHT22;56083;48.774;8.942;2023-06-14T00:15:10;11.30;99.90
69031;DHT22;56083;48.774;8.942;2023-06-14T00:17:36;11.30;99.90
69031;DHT22;56083;48.774;8.942;2023-06-14T00:20:04;11.20;99.90
69031;DHT22;56083;48.774;8.942;2023-06-14T00:22:33;11.00;99.90
69031;DHT22;56083;48.774;8.942;2023-06-14T00:25:00;11.00;99.90
69031;DHT22;56083;48.774;8.942;2023-06-14T00:27:26;10.90;99.90
69031;DHT22;56083;48.774;8.942;2023-06-14T00:29:51;10.80;99.90
69031;DHT22;56083;48.774;8.942;2023-06-14T00:32:18;10.80;99.90
69031;DHT22;56083;48.774;8.942;2023-06-14T00:34:44;10.80;99.90
69031;DHT22;56083;48.774;8.942;2023-06-14T00:37:09;10.80;99.90
69031;DHT22;56083;48.774;8.942;2023-06-14T00:39:35;10.80;99.90
69031;DHT22;56083;48.774;8.942;2023-06-14T00:42:01;10.80;99.90
69031;DHT22;56083;48.774;8.942;2023-06-14T00:44:26;10.70;99.90
69031;DHT22;56083;48.774;8.942;2023-06-14T00:46:52;10.70;99.90
69031;DHT22;56083;48.774;8.942;2023-06-14T00:49:18;10.60;99.90
69031;DHT22;56083;48.774;8.942;2023-06-14T00:51:45;10.60;99.90
69031;DHT22;56083;48.774;8.942;2023-06-14T00:54:11;10.50;99.90
69031;DHT22;56083;48.774;8.942;2023-06-14T00:56:37;10.40;99.90
69031;DHT22;56083;48.774;8.942;2023-06-14T00:59:03;10.30;99.90
69031;DHT22;56083;48.774;8.942;2023-06-14T01:01:30;10.40;99.90
69031;DHT22;56083;48.774;8.942;2023-06-14T01:03:58;10.30;99.90
69031;DHT22;56083;48.774;8.942;2023-06-14T01:06:32;10.30;99.90
69031;DHT22;56083;48.774;8.942;2023-06-14T01:12:13;10.30;99.90
69031;DHT22;56083;48.774;8.942;2023-06-14T01:14:41;10.30;99.90
69031;DHT22;56083;48.774;8.942;2023-06-14T01:17:08;10.30;99.90
69031;DHT22;56083;48.774;8.942;2023-06-14T01:19:41;10.30;99.90
69031;DHT22;56083;48.774;8.942;2023-06-14T01:22:08;10.20;99.90
69031;DHT22;56083;48.774;8.942;2023-06-14T01:24:34;10.40;99.90
69031;DHT22;56083;48.774;8.942;2023-06-14T01:27:00;10.40;99.90
69031;DHT22;56083;48.774;8.942;2023-06-14T01:29:27;10.40;99.90
69031;DHT22;56083;48.774;8.942;2023-06-14T01:31:58;10.40;99.90
69031;DHT22;56083;48.774;8.942;2023-06-14T01:34:25;10.30;99.90
69031;DHT22;56083;48.774;8.942;2023-06-14T01:36:52;10.30;99.90
69031;DHT22;56083;48.774;8.942;2023-06-14T01:39:20;10.30;99.90
69031;DHT22;56083;48.774;8.942;2023-06-14T01:41:50;10.20;99.90
69031;DHT22;56083;48.774;8.942;2023-06-14T01:44:17;10.20;99.90
69031;DHT22;56083;48.774;8.942;2023-06-14T01:46:43;10.10;99.90
69031;DHT22;56083;48.774;8.942;2023-06-14T01:49:11;10.00;99.90
69031;DHT22;56083;48.774;8.942;2023-06-14T01:51:36;9.90;99.90
69031;DHT22;56083;48.774;8.942;2023-06-14T01:54:02;9.80;99.90
69031;DHT22;56083;48.774;8.942;2023-06-14T01:56:28;9.70;99.90
69031;DHT22;56083;48.774;8.942;2023-06-14T01:58:53;9.60;99.90
69031;DHT22;56083;48.774;8.942;2023-06-14T02:01:19;9.60;99.90
69031;DHT22;56083;48.774;8.942;2023-06-14T02:03:47;9.50;99.90
69031;DHT22;56083;48.774;8.942;2023-06-14T02:06:13;9.50;99.90
69031;DHT22;56083;48.774;8.942;2023-06-14T02:08:41;9.40;99.90
69031;DHT22;56083;48.774;8.942;2023-06-14T02:11:07;9.30;99.90
69031;DHT22;56083;48.774;8.942;2023-06-14T02:13:32;9.30;99.90
69031;DHT22;56083;48.774;8.942;2023-06-14T02:16:00;9.20;99.90
69031;DHT22;56083;48.774;8.942;2023-06-14T02:18:25;9.20;99.90
69031;DHT22;56083;48.774;8.942;2023-06-14T02:20:51;9.10;99.90
69031;DHT22;56083;48.774;8.942;2023-06-14T02:23:17;9.10;99.90
69031;DHT22;56083;48.774;8.942;2023-06-14T02:25:43;9.10;99.90
69031;DHT22;56083;48.774;8.942;2023-06-14T02:28:10;9.10;99.90
69031;DHT22;56083;48.774;8.942;2023-06-14T02:30:36;9.10;99.90
69031;DHT22;56083;48.774;8.942;2023-06-14T02:33:01;9.10;99.90
69031;DHT22;56083;48.774;8.942;2023-06-14T02:35:27;9.10;99.90
69031;DHT22;56083;48.774;8.942;2023-06-14T02:37:53;9.00;99.90
69031;DHT22;56083;48.774;8.942;2023-06-14T02:40:19;9.00;99.90
69031;DHT22;56083;48.774;8.942;2023-06-14T02:42:45;9.00;99.90
69031;DHT22;56083;48.774;8.942;2023-06-14T02:45:11;9.00;99.90
69031;DHT22;56083;48.774;8.942;2023-06-14T02:47:36;9.00;99.90
69031;DHT22;56083;48.774;8.942;2023-06-14T02:50:02;8.90;99.90
69031;DHT22;56083;48.774;8.942;2023-06-14T02:52:28;8.90;99.90
69031;DHT22;56083;48.774;8.942;2023-06-14T02:54:54;8.90;99.90
69031;DHT22;56083;48.774;8.942;2023-06-14T02:57:20;8.90;99.90
69031;DHT22;56083;48.774;8.942;2023-06-14T02:59:46;8.90;99.90
69031;DHT22;56083;48.774;8.942;2023-06-14T03:02:11;8.80;99.90
69031;DHT22;56083;48.774;8.942;2023-06-14T03:04:37;8.80;99.90
69031;DHT22;56083;48.774;8.942;2023-06-14T03:07:03;8.70;99.90
69031;DHT22;56083;48.774;8.942;2023-06-14T03:09:37;8.70;99.90
69031;DHT22;56083;48.774;8.942;2023-06-14T03:12:04;8.80;99.90
69031;DHT22;56083;48.774;8.942;2023-06-14T03:14:31;8.70;99.90
69031;DHT22;56083;48.774;8.942;2023-06-14T03:16:57;8.60;99.90
69031;DHT22;56083;48.774;8.942;2023-06-14T03:19:23;8.60;99.90
69031;DHT22;56083;48.774;8.942;2023-06-14T03:21:48;8.60;99.90
69031;DHT22;56083;48.774;8.942;2023-06-14T03:24:15;8.60;99.90
69031;DHT22;56083;48.774;8.942;2023-06-14T03:26:43;8.60;99.90
69031;DHT22;56083;48.774;8.942;2023-06-14T03:29:09;8.60;99.90
69031;DHT22;56083;48.774;8.942;2023-06-14T03:31:35;8.70;99.90
69031;DHT22;56083;48.774;8.942;2023-06-14T03:34:01;8.70;99.90
69031;DHT22;56083;48.774;8.942;2023-06-14T03:36:27;8.70;99.90
69031;DHT22;56083;48.774;8.942;2023-06-14T03:38:56;8.70;99.90
69031;DHT22;56083;48.774;8.942;2023-06-14T03:41:21;8.70;99.90
69031;DHT22;56083;48.774;8.942;2023-06-14T03:43:47;8.70;99.90
69031;DHT22;56083;48.774;8.942;2023-06-14T03:46:12;8.70;99.90
69031;DHT22;56083;48.774;8.942;2023-06-14T03:48:38;8.70;99.90
69031;DHT22;56083;48.774;8.942;2023-06-14T03:51:04;8.70;99.90
69031;DHT22;56083;48.774;8.942;2023-06-14T03:53:30;8.70;99.90
69031;DHT22;56083;48.774;8.942;2023-06-14T03:55:56;8.80;99.90
69031;DHT22;56083;48.774;8.942;2023-06-14T03:58:22;8.90;99.90
69031;DHT22;56083;48.774;8.942;2023-06-14T04:00:48;8.90;99.90
69031;DHT22;56083;48.774;8.942;2023-06-14T04:03:14;9.00;99.90
69031;DHT22;56083;48.774;8.942;2023-06-14T04:05:41;8.90;99.90
69031;DHT22;56083;48.774;8.942;2023-06-14T04:08:08;9.10;99.90
69031;DHT22;56083;48.774;8.942;2023-06-14T04:10:34;9.10;99.90
69031;DHT22;56083;48.774;8.942;2023-06-14T04:13:00;9.10;99.90
69031;DHT22;56083;48.774;8.942;2023-06-14T04:15:25;9.20;99.90
69031;DHT22;56083;48.774;8.942;2023-06-14T04:17:53;9.30;99.90
69031;DHT22;56083;48.774;8.942;2023-06-14T04:20:23;9.30;99.90
69031;DHT22;56083;48.774;8.942;2023-06-14T04:22:50;9.40;99.90
69031;DHT22;56083;48.774;8.942;2023-06-14T04:25:16;9.50;99.90
69031;DHT22;56083;48.774;8.942;2023-06-14T04:27:42;9.60;99.90
69031;DHT22;56083;48.774;8.942;2023-06-14T04:30:09;9.70;99.90
69031;DHT22;56083;48.774;8.942;2023-06-14T04:32:35;9.80;99.90
69031;DHT22;56083;48.774;8.942;2023-06-14T04:35:08;9.80;99.90
69031;DHT22;56083;48.774;8.942;2023-06-14T04:37:33;9.90;99.90
69031;DHT22;56083;48.774;8.942;2023-06-14T04:40:00;10.00;99.90
69031;DHT22;56083;48.774;8.942;2023-06-14T04:42:26;10.00;99.90
69031;DHT22;56083;48.774;8.942;2023-06-14T04:44:56;10.10;99.90
69031;DHT22;56083;48.774;8.942;2023-06-14T04:47:22;10.10;99.90
69031;DHT22;56083;48.774;8.942;2023-06-14T04:49:50;10.20;99.90
69031;DHT22;56083;48.774;8.942;2023-06-14T04:52:18;10.30;99.90
69031;DHT22;56083;48.774;8.942;2023-06-14T04:54:46;10.40;99.90
69031;DHT22;56083;48.774;8.942;2023-06-14T04:57:12;10.60;99.90
69031;DHT22;56083;48.774;8.942;2023-06-14T04:59:43;10.70;99.90
69031;DHT22;56083;48.774;8.942;2023-06-14T05:02:10;10.80;99.90
69031;DHT22;56083;48.774;8.942;2023-06-14T05:04:37;10.80;99.90
69031;DHT22;56083;48.774;8.942;2023-06-14T05:07:08;10.90;99.90
69031;DHT22;56083;48.774;8.942;2023-06-14T05:09:35;11.00;99.90
69031;DHT22;56083;48.774;8.942;2023-06-14T05:12:01;11.20;99.90
69031;DHT22;56083;48.774;8.942;2023-06-14T05:14:27;11.30;99.90
69031;DHT22;56083;48.774;8.942;2023-06-14T05:16:52;11.50;99.90
69031;DHT22;56083;48.774;8.942;2023-06-14T05:19:19;11.60;99.90
69031;DHT22;56083;48.774;8.942;2023-06-14T05:21:47;11.70;99.90
69031;DHT22;56083;48.774;8.942;2023-06-14T05:24:13;11.90;99.90
69031;DHT22;56083;48.774;8.942;2023-06-14T05:26:39;12.10;99.90
69031;DHT22;56083;48.774;8.942;2023-06-14T05:29:05;12.30;99.90
69031;DHT22;56083;48.774;8.942;2023-06-14T05:31:31;12.50;99.90
69031;DHT22;56083;48.774;8.942;2023-06-14T05:33:56;12.70;99.90
69031;DHT22;56083;48.774;8.942;2023-06-14T05:36:22;12.90;99.90
69031;DHT22;56083;48.774;8.942;2023-06-14T05:38:48;13.00;99.90
69031;DHT22;56083;48.774;8.942;2023-06-14T05:41:14;13.20;99.90
69031;DHT22;56083;48.774;8.942;2023-06-14T05:43:40;13.40;99.90
69031;DHT22;56083;48.774;8.942;2023-06-14T05:46:05;13.60;99.90
69031;DHT22;56083;48.774;8.942;2023-06-14T05:48:31;13.80;99.90
69031;DHT22;56083;48.774;8.942;2023-06-14T05:50:57;14.00;99.90
69031;DHT22;56083;48.774;8.942;2023-06-14T05:53:22;14.20;99.90
69031;DHT22;56083;48.774;8.942;2023-06-14T05:55:50;14.40;99.90
69031;DHT22;56083;48.774;8.942;2023-06-14T05:58:20;14.70;99.90
69031;DHT22;56083;48.774;8.942;2023-06-14T06:00:46;14.90;99.90
69031;DHT22;56083;48.774;8.942;2023-06-14T06:03:12;15.10;99.90
69031;DHT22;56083;48.774;8.942;2023-06-14T06:05:39;15.40;99.90
69031;DHT22;56083;48.774;8.942;2023-06-14T06:08:05;15.60;99.90
69031;DHT22;56083;48.774;8.942;2023-06-14T06:10:31;15.80;99.90
69031;DHT22;56083;48.774;8.942;2023-06-14T06:12:56;15.90;99.90
69031;DHT22;56083;48.774;8.942;2023-06-14T06:15:22;16.10;99.90
69031;DHT22;56083;48.774;8.942;2023-06-14T06:17:48;16.30;99.90
69031;DHT22;56083;48.774;8.942;2023-06-14T06:20:13;16.50;99.90
69031;DHT22;56083;48.774;8.942;2023-06-14T06:22:39;16.70;99.90
69031;DHT22;56083;48.774;8.942;2023-06-14T06:25:05;16.90;99.90
69031;DHT22;56083;48.774;8.942;2023-06-14T06:27:31;17.10;99.90
69031;DHT22;56083;48.774;8.942;2023-06-14T06:29:57;17.30;99.90
69031;DHT22;56083;48.774;8.942;2023-06-14T06:32:23;17.50;99.90
69031;DHT22;56083;48.774;8.942;2023-06-14T06:34:48;17.80;99.90
69031;DHT22;56083;48.774;8.942;2023-06-14T06:37:14;18.00;99.90
69031;DHT22;56083;48.774;8.942;2023-06-14T06:39:40;18.20;99.90
69031;DHT22;56083;48.774;8.942;2023-06-14T06:42:06;18.40;99.90
69031;DHT22;56083;48.774;8.942;2023-06-14T06:44:32;18.70;99.90
69031;DHT22;56083;48.774;8.942;2023-06-14T06:46:58;18.80;99.90
69031;DHT22;56083;48.774;8.942;2023-06-14T06:49:23;19.00;99.90
69031;DHT22;56083;48.774;8.942;2023-06-14T06:52:00;19.10;99.90
69031;DHT22;56083;48.774;8.942;2023-06-14T06:54:26;19.30;99.90
69031;DHT22;56083;48.774;8.942;2023-06-14T06:56:52;19.60;99.90
69031;DHT22;56083;48.774;8.942;2023-06-14T06:59:18;19.70;99.90
69031;DHT22;56083;48.774;8.942;2023-06-14T07:01:43;19.90;99.90
69031;DHT22;56083;48.774;8.942;2023-06-14T07:04:09;20.10;99.90
69031;DHT22;56083;48.774;8.942;2023-06-14T07:06:34;20.30;99.90
69031;DHT22;56083;48.774;8.942;2023-06-14T07:09:00;20.40;99.90
69031;DHT22;56083;48.774;8.942;2023-06-14T07:11:27;20.70;99.90
69031;DHT22;56083;48.774;8.942;2023-06-14T07:13:52;20.90;99.90
69031;DHT22;56083;48.774;8.942;2023-06-14T07:16:18;21.00;99.90
69031;DHT22;56083;48.774;8.942;2023-06-14T07:18:44;21.10;99.90
69031;DHT22;56083;48.774;8.942;2023-06-14T07:21:09;21.20;99.90
69031;DHT22;56083;48.774;8.942;2023-06-14T07:23:35;21.40;99.90
69031;DHT22;56083;48.774;8.942;2023-06-14T07:26:01;21.60;99.90
69031;DHT22;56083;48.774;8.942;2023-06-14T07:28:27;22.00;99.90
69031;DHT22;56083;48.774;8.942;2023-06-14T07:30:52;22.20;99.90
69031;DHT22;56083;48.774;8.942;2023-06-14T07:33:18;22.30;99.90
69031;DHT22;56083;48.774;8.942;2023-06-14T07:35:43;22.50;99.90
69031;DHT22;56083;48.774;8.942;2023-06-14T07:38:09;22.60;99.90
69031;DHT22;56083;48.774;8.942;2023-06-14T07:40:35;22.80;99.90
69031;DHT22;56083;48.774;8.942;2023-06-14T07:43:00;22.90;99.90
69031;DHT22;56083;48.774;8.942;2023-06-14T07:45:27;23.00;99.90
69031;DHT22;56083;48.774;8.942;2023-06-14T07:47:53;23.00;99.90
69031;DHT22;56083;48.774;8.942;2023-06-14T07:50:19;23.00;99.40
69031;DHT22;56083;48.774;8.942;2023-06-14T07:52:45;22.90;99.80
69031;DHT22;56083;48.774;8.942;2023-06-14T07:55:11;23.00;99.30
69031;DHT22;56083;48.774;8.942;2023-06-14T07:57:37;23.10;98.40
69031;DHT22;56083;48.774;8.942;2023-06-14T08:00:03;23.30;97.70
69031;DHT22;56083;48.774;8.942;2023-06-14T08:02:32;23.30;97.60
69031;DHT22;56083;48.774;8.942;2023-06-14T08:04:57;23.50;95.90
69031;DHT22;56083;48.774;8.942;2023-06-14T08:07:24;23.70;96.10
69031;DHT22;56083;48.774;8.942;2023-06-14T08:09:50;23.90;94.60
69031;DHT22;56083;48.774;8.942;2023-06-14T08:12:15;24.20;94.30
69031;DHT22;56083;48.774;8.942;2023-06-14T08:14:42;24.60;93.90
69031;DHT22;56083;48.774;8.942;2023-06-14T08:17:08;24.90;93.10
69031;DHT22;56083;48.774;8.942;2023-06-14T08:19:33;25.20;93.40
69031;DHT22;56083;48.774;8.942;2023-06-14T08:21:59;25.80;92.10
69031;DHT22;56083;48.774;8.942;2023-06-14T08:24:25;26.10;90.20
69031;DHT22;56083;48.774;8.942;2023-06-14T08:26:54;26.50;89.20
69031;DHT22;56083;48.774;8.942;2023-06-14T08:29:19;26.50;88.10
69031;DHT22;56083;48.774;8.942;2023-06-14T08:31:46;26.60;87.30
69031;DHT22;56083;48.774;8.942;2023-06-14T08:34:12;27.30;84.90
69031;DHT22;56083;48.774;8.942;2023-06-14T08:36:37;27.70;80.70
69031;DHT22;56083;48.774;8.942;2023-06-14T08:39:03;28.10;79.30
69031;DHT22;56083;48.774;8.942;2023-06-14T08:41:29;28.20;77.50
69031;DHT22;56083;48.774;8.942;2023-06-14T08:43:56;28.60;76.80
69031;DHT22;56083;48.774;8.942;2023-06-14T08:46:25;28.70;74.80
69031;DHT22;56083;48.774;8.942;2023-06-14T08:48:55;29.00;74.20
69031;DHT22;56083;48.774;8.942;2023-06-14T08:51:22;29.90;72.80
69031;DHT22;56083;48.774;8.942;2023-06-14T08:53:55;29.90;70.40
69031;DHT22;56083;48.774;8.942;2023-06-14T08:56:27;30.90;67.90
69031;DHT22;56083;48.774;8.942;2023-06-14T08:58:54;31.20;65.40
69031;DHT22;56083;48.774;8.942;2023-06-14T09:01:22;31.80;63.70
69031;DHT22;56083;48.774;8.942;2023-06-14T09:03:49;32.00;61.00
69031;DHT22;56083;48.774;8.942;2023-06-14T09:06:15;32.10;59.90
69031;DHT22;56083;48.774;8.942;2023-06-14T09:08:46;31.70;57.60
69031;DHT22;56083;48.774;8.942;2023-06-14T09:11:12;31.50;57.90
69031;DHT22;56083;48.774;8.942;2023-06-14T09:13:39;31.50;58.10
69031;DHT22;56083;48.774;8.942;2023-06-14T09:16:05;31.80;57.70
69031;DHT22;56083;48.774;8.942;2023-06-14T09:18:50;32.40;57.60
69031;DHT22;56083;48.774;8.942;2023-06-14T09:21:17;32.70;55.60
69031;DHT22;56083;48.774;8.942;2023-06-14T09:23:47;32.50;55.00
69031;DHT22;56083;48.774;8.942;2023-06-14T09:26:17;32.30;54.40
69031;DHT22;56083;48.774;8.942;2023-06-14T09:28:46;31.70;53.50
69031;DHT22;56083;48.774;8.942;2023-06-14T09:31:16;31.60;56.00
69031;DHT22;56083;48.774;8.942;2023-06-14T09:33:47;31.80;55.70
69031;DHT22;56083;48.774;8.942;2023-06-14T09:39:01;32.50;54.70
69031;DHT22;56083;48.774;8.942;2023-06-14T09:44:01;33.20;52.90
69031;DHT22;56083;48.774;8.942;2023-06-14T09:47:03;33.30;52.50
69031;DHT22;56083;48.774;8.942;2023-06-14T09:49:29;34.00;51.90
69031;DHT22;56083;48.774;8.942;2023-06-14T09:55:40;34.80;48.80
69031;DHT22;56083;48.774;8.942;2023-06-14T10:01:30;35.40;47.30
69031;DHT22;56083;48.774;8.942;2023-06-14T10:04:10;35.90;47.00
69031;DHT22;56083;48.774;8.942;2023-06-14T10:10:30;36.10;43.70
69031;DHT22;56083;48.774;8.942;2023-06-14T10:17:07;36.60;43.30
69031;DHT22;56083;48.774;8.942;2023-06-14T10:23:22;35.70;40.30
69031;DHT22;56083;48.774;8.942;2023-06-14T10:25:56;34.80;41.60
69031;DHT22;56083;48.774;8.942;2023-06-14T10:28:22;35.30;41.60
69031;DHT22;56083;48.774;8.942;2023-06-14T10:31:08;36.00;41.20
69031;DHT22;56083;48.774;8.942;2023-06-14T10:33:36;36.30;40.80
69031;DHT22;56083;48.774;8.942;2023-06-14T10:39:17;33.40;41.60
69031;DHT22;56083;48.774;8.942;2023-06-14T10:41:57;31.90;44.30
69031;DHT22;56083;48.774;8.942;2023-06-14T10:47:28;32.20;46.70
69031;DHT22;56083;48.774;8.942;2023-06-14T10:50:27;33.20;45.20
69031;DHT22;56083;48.774;8.942;2023-06-14T10:53:01;32.30;44.30
69031;DHT22;56083;48.774;8.942;2023-06-14T10:55:56;32.50;44.20
69031;DHT22;56083;48.774;8.942;2023-06-14T10:58:34;33.20;44.30
69031;DHT22;56083;48.774;8.942;2023-06-14T11:04:07;35.90;42.00
69031;DHT22;56083;48.774;8.942;2023-06-14T11:06:50;37.00;39.70
69031;DHT22;56083;48.774;8.942;2023-06-14T11:12:27;38.70;38.60
69031;DHT22;56083;48.774;8.942;2023-06-14T11:14:53;38.60;37.60
69031;DHT22;56083;48.774;8.942;2023-06-14T11:17:25;39.70;37.10
69031;DHT22;56083;48.774;8.942;2023-06-14T11:20:14;39.70;36.30
69031;DHT22;56083;48.774;8.942;2023-06-14T11:22:44;39.40;36.40
69031;DHT22;56083;48.774;8.942;2023-06-14T11:25:14;39.10;36.00
69031;DHT22;56083;48.774;8.942;2023-06-14T11:27:42;39.30;35.40
69031;DHT22;56083;48.774;8.942;2023-06-14T11:30:08;39.60;36.10
69031;DHT22;56083;48.774;8.942;2023-06-14T11:32:38;39.60;35.10
69031;DHT22;56083;48.774;8.942;2023-06-14T11:35:08;39.40;34.70
69031;DHT22;56083;48.774;8.942;2023-06-14T11:37:37;38.30;35.40
69031;DHT22;56083;48.774;8.942;2023-06-14T11:40:04;37.90;36.40
69031;DHT22;56083;48.774;8.942;2023-06-14T11:42:42;38.30;35.50
69031;DHT22;56083;48.774;8.942;2023-06-14T11:45:08;38.40;35.50
69031;DHT22;56083;48.774;8.942;2023-06-14T11:47:39;39.20;34.60
69031;DHT22;56083;48.774;8.942;2023-06-14T11:50:06;39.20;33.60
69031;DHT22;56083;48.774;8.942;2023-06-14T11:52:33;39.20;33.20
69031;DHT22;56083;48.774;8.942;2023-06-14T11:54:59;39.30;33.80
69031;DHT22;56083;48.774;8.942;2023-06-14T11:57:26;39.90;34.30
69031;DHT22;56083;48.774;8.942;2023-06-14T11:59:54;39.70;33.60
69031;DHT22;56083;48.774;8.942;2023-06-14T12:02:23;39.10;34.60
69031;DHT22;56083;48.774;8.942;2023-06-14T12:04:53;38.40;33.80
69031;DHT22;56083;48.774;8.942;2023-06-14T12:07:19;38.60;33.70
69031;DHT22;56083;48.774;8.942;2023-06-14T12:12:20;38.10;34.80
69031;DHT22;56083;48.774;8.942;2023-06-14T12:14:49;38.70;34.50
69031;DHT22;56083;48.774;8.942;2023-06-14T12:17:17;39.30;33.90
69031;DHT22;56083;48.774;8.942;2023-06-14T12:19:55;39.30;33.50
69031;DHT22;56083;48.774;8.942;2023-06-14T12:22:23;38.80;33.10
69031;DHT22;56083;48.774;8.942;2023-06-14T12:24:49;36.50;34.40
69031;DHT22;56083;48.774;8.942;2023-06-14T12:27:17;35.20;35.70
69031;DHT22;56083;48.774;8.942;2023-06-14T12:29:45;34.30;38.00
69031;DHT22;56083;48.774;8.942;2023-06-14T12:32:11;33.40;39.00
69031;DHT22;56083;48.774;8.942;2023-06-14T12:34:37;33.70;39.20
69031;DHT22;56083;48.774;8.942;2023-06-14T12:37:02;34.40;38.30
69031;DHT22;56083;48.774;8.942;2023-06-14T12:39:31;35.20;38.10
69031;DHT22;56083;48.774;8.942;2023-06-14T12:41:58;36.30;36.50
69031;DHT22;56083;48.774;8.942;2023-06-14T12:44:24;37.00;36.00
69031;DHT22;56083;48.774;8.942;2023-06-14T12:46:50;38.10;34.30
69031;DHT22;56083;48.774;8.942;2023-06-14T12:49:18;38.70;34.30
69031;DHT22;56083;48.774;8.942;2023-06-14T12:51:45;39.40;33.90
69031;DHT22;56083;48.774;8.942;2023-06-14T12:54:11;39.70;32.20
69031;DHT22;56083;48.774;8.942;2023-06-14T12:56:37;39.30;33.20
69031;DHT22;56083;48.774;8.942;2023-06-14T12:59:04;40.00;32.90
69031;DHT22;56083;48.774;8.942;2023-06-14T13:01:31;39.10;32.60
69031;DHT22;56083;48.774;8.942;2023-06-14T13:03:57;39.30;32.40
69031;DHT22;56083;48.774;8.942;2023-06-14T13:06:22;39.10;32.40
69031;DHT22;56083;48.774;8.942;2023-06-14T13:08:48;39.40;32.50
69031;DHT22;56083;48.774;8.942;2023-06-14T13:11:14;39.40;32.40
69031;DHT22;56083;48.774;8.942;2023-06-14T13:13:40;40.00;31.50
69031;DHT22;56083;48.774;8.942;2023-06-14T13:16:06;38.70;32.30
69031;DHT22;56083;48.774;8.942;2023-06-14T13:18:31;38.40;33.30
69031;DHT22;56083;48.774;8.942;2023-06-14T13:20:57;39.20;33.00
69031;DHT22;56083;48.774;8.942;2023-06-14T13:23:23;40.00;32.30
69031;DHT22;56083;48.774;8.942;2023-06-14T13:25:49;40.40;33.40
69031;DHT22;56083;48.774;8.942;2023-06-14T13:28:16;40.90;31.70
69031;DHT22;56083;48.774;8.942;2023-06-14T13:30:42;40.90;30.80
69031;DHT22;56083;48.774;8.942;2023-06-14T13:33:07;40.60;30.20
69031;DHT22;56083;48.774;8.942;2023-06-14T13:35:33;40.60;31.20
69031;DHT22;56083;48.774;8.942;2023-06-14T13:37:59;40.30;32.10
69031;DHT22;56083;48.774;8.942;2023-06-14T13:40:25;39.90;32.30
69031;DHT22;56083;48.774;8.942;2023-06-14T13:42:51;39.50;31.50
69031;DHT22;56083;48.774;8.942;2023-06-14T13:45:16;39.80;31.70
69031;DHT22;56083;48.774;8.942;2023-06-14T13:47:42;40.10;31.60
69031;DHT22;56083;48.774;8.942;2023-06-14T13:50:08;40.20;31.00
69031;DHT22;56083;48.774;8.942;2023-06-14T13:52:33;40.70;31.30
69031;DHT22;56083;48.774;8.942;2023-06-14T13:55:00;40.50;30.20
69031;DHT22;56083;48.774;8.942;2023-06-14T13:57:26;40.60;30.60
69031;DHT22;56083;48.774;8.942;2023-06-14T13:59:52;40.50;30.40
69031;DHT22;56083;48.774;8.942;2023-06-14T14:02:20;40.60;30.80
69031;DHT22;56083;48.774;8.942;2023-06-14T14:04:46;40.20;30.10
69031;DHT22;56083;48.774;8.942;2023-06-14T14:07:18;40.50;29.90
69031;DHT22;56083;48.774;8.942;2023-06-14T14:09:44;40.90;29.70
69031;DHT22;56083;48.774;8.942;2023-06-14T14:12:10;40.30;29.80
69031;DHT22;56083;48.774;8.942;2023-06-14T14:14:37;40.00;31.20
69031;DHT22;56083;48.774;8.942;2023-06-14T14:17:02;40.10;30.50
69031;DHT22;56083;48.774;8.942;2023-06-14T14:19:29;39.10;32.00
69031;DHT22;56083;48.774;8.942;2023-06-14T14:21:55;38.70;32.30
69031;DHT22;56083;48.774;8.942;2023-06-14T14:24:20;39.00;32.90
69031;DHT22;56083;48.774;8.942;2023-06-14T14:26:46;38.50;32.30
69031;DHT22;56083;48.774;8.942;2023-06-14T14:29:14;37.60;32.40
69031;DHT22;56083;48.774;8.942;2023-06-14T14:31:40;37.40;34.40
69031;DHT22;56083;48.774;8.942;2023-06-14T14:34:05;37.50;33.40
69031;DHT22;56083;48.774;8.942;2023-06-14T14:36:31;38.40;33.30
69031;DHT22;56083;48.774;8.942;2023-06-14T14:38:59;39.30;32.30
69031;DHT22;56083;48.774;8.942;2023-06-14T14:41:24;38.70;31.60
69031;DHT22;56083;48.774;8.942;2023-06-14T14:43:50;38.70;32.50
69031;DHT22;56083;48.774;8.942;2023-06-14T14:46:16;38.60;32.20
69031;DHT22;56083;48.774;8.942;2023-06-14T14:48:42;38.20;32.60
69031;DHT22;56083;48.774;8.942;2023-06-14T14:51:07;37.70;34.00
69031;DHT22;56083;48.774;8.942;2023-06-14T14:53:33;38.00;33.10
69031;DHT22;56083;48.774;8.942;2023-06-14T14:55:59;38.30;33.10
69031;DHT22;56083;48.774;8.942;2023-06-14T14:58:25;39.10;33.70
69031;DHT22;56083;48.774;8.942;2023-06-14T15:00:50;38.50;32.60
69031;DHT22;56083;48.774;8.942;2023-06-14T15:03:16;36.10;34.70
69031;DHT22;56083;48.774;8.942;2023-06-14T15:05:42;33.70;37.10
69031;DHT22;56083;48.774;8.942;2023-06-14T15:08:08;32.00;38.70
69031;DHT22;56083;48.774;8.942;2023-06-14T15:10:37;31.50;40.40
69031;DHT22;56083;48.774;8.942;2023-06-14T15:13:05;32.50;40.30
69031;DHT22;56083;48.774;8.942;2023-06-14T15:15:31;33.00;39.40
69031;DHT22;56083;48.774;8.942;2023-06-14T15:17:57;32.90;39.20
69031;DHT22;56083;48.774;8.942;2023-06-14T15:20:22;33.30;39.70
69031;DHT22;56083;48.774;8.942;2023-06-14T15:22:48;33.40;39.30
69031;DHT22;56083;48.774;8.942;2023-06-14T15:25:14;32.90;39.20
69031;DHT22;56083;48.774;8.942;2023-06-14T15:27:40;32.40;39.40
69031;DHT22;56083;48.774;8.942;2023-06-14T15:30:06;31.80;40.40
69031;DHT22;56083;48.774;8.942;2023-06-14T15:32:32;31.40;41.70
69031;DHT22;56083;48.774;8.942;2023-06-14T15:34:57;31.10;42.30
69031;DHT22;56083;48.774;8.942;2023-06-14T15:37:23;30.30;41.90
69031;DHT22;56083;48.774;8.942;2023-06-14T15:39:48;30.10;42.90
69031;DHT22;56083;48.774;8.942;2023-06-14T15:42:14;29.60;43.90
69031;DHT22;56083;48.774;8.942;2023-06-14T15:44:40;29.20;44.20
69031;DHT22;56083;48.774;8.942;2023-06-14T15:47:07;28.70;44.60
69031;DHT22;56083;48.774;8.942;2023-06-14T15:49:33;28.50;43.90
69031;DHT22;56083;48.774;8.942;2023-06-14T15:51:59;28.40;44.80
69031;DHT22;56083;48.774;8.942;2023-06-14T15:54:26;28.10;45.50
69031;DHT22;56083;48.774;8.942;2023-06-14T15:56:52;28.20;45.20
69031;DHT22;56083;48.774;8.942;2023-06-14T15:59:18;28.50;45.00
69031;DHT22;56083;48.774;8.942;2023-06-14T16:01:43;28.80;44.60
69031;DHT22;56083;48.774;8.942;2023-06-14T16:04:09;28.90;44.50
69031;DHT22;56083;48.774;8.942;2023-06-14T16:06:35;29.60;44.80
69031;DHT22;56083;48.774;8.942;2023-06-14T16:09:02;30.50;43.30
69031;DHT22;56083;48.774;8.942;2023-06-14T16:11:28;31.00;42.50
69031;DHT22;56083;48.774;8.942;2023-06-14T16:13:54;31.10;42.60